sensor_id;sensor_type;location;lat;lon;timestamp;P1;durP1;ratioP1;P2;durP2;ratioP2
63346;SDS011;49472;49.880;8.650;2024-01-07T00:01:48;16.80;;;15.23;;
63346;SDS011;49472;49.880;8.650;2024-01-07T00:04:14;17.97;;;16.23;;
63346;SDS011;49472;49.880;8.650;2024-01-07T00:06:39;16.30;;;14.90;;
63346;SDS011;49472;49.880;8.650;2024-01-07T00:09:04;16.60;;;15.00;;
63346;SDS011;49472;49.880;8.650;2024-01-07T00:11:30;16.40;;;15.00;;
63346;SDS011;49472;49.880;8.650;2024-01-07T00:13:55;17.03;;;15.60;;
63346;SDS011;49472;49.880;8.650;2024-01-07T00:16:20;17.50;;;15.83;;
63346;SDS011;49472;49.880;8.650;2024-01-07T00:18:45;17.60;;;16.00;;
63346;SDS011;49472;49.880;8.650;2024-01-07T00:21:10;17.03;;;15.43;;
63346;SDS011;49472;49.880;8.650;2024-01-07T00:23:36;18.20;;;16.60;;
63346;SDS011;49472;49.880;8.650;2024-01-07T00:26:01;18.33;;;16.77;;
63346;SDS011;49472;49.880;8.650;2024-01-07T00:28:28;18.60;;;16.83;;
63346;SDS011;49472;49.880;8.650;2024-01-07T00:30:53;18.27;;;16.67;;
63346;SDS011;49472;49.880;8.650;2024-01-07T00:33:23;18.80;;;17.03;;
63346;SDS011;49472;49.880;8.650;2024-01-07T00:35:48;17.80;;;16.20;;
63346;SDS011;49472;49.880;8.650;2024-01-07T00:38:13;17.77;;;16.03;;
63346;SDS011;49472;49.880;8.650;2024-01-07T00:40:38;17.17;;;15.77;;
63346;SDS011;49472;49.880;8.650;2024-01-07T00:43:04;16.90;;;15.60;;
63346;SDS011;49472;49.880;8.650;2024-01-07T00:45:29;16.67;;;15.17;;
63346;SDS011;49472;49.880;8.650;2024-01-07T00:47:54;17.20;;;15.80;;
63346;SDS011;49472;49.880;8.650;2024-01-07T00:50:20;19.03;;;17.17;;
63346;SDS011;49472;49.880;8.650;2024-01-07T00:52:45;16.87;;;15.57;;
63346;SDS011;49472;49.880;8.650;2024-01-07T00:55:11;17.43;;;16.03;;
63346;SDS011;49472;49.880;8.650;2024-01-07T00:57:36;17.67;;;16.00;;
63346;SDS011;49472;49.880;8.650;2024-01-07T01:00:05;16.80;;;15.50;;
63346;SDS011;49472;49.880;8.650;2024-01-07T01:02:31;15.53;;;14.20;;
63346;SDS011;49472;49.880;8.650;2024-01-07T01:04:56;17.40;;;15.90;;
63346;SDS011;49472;49.880;8.650;2024-01-07T01:07:21;16.00;;;14.80;;
63346;SDS011;49472;49.880;8.650;2024-01-07T01:09:46;16.40;;;15.00;;
63346;SDS011;49472;49.880;8.650;2024-01-07T01:12:12;15.23;;;14.10;;
63346;SDS011;49472;49.880;8.650;2024-01-07T01:14:37;16.20;;;14.93;;
63346;SDS011;49472;49.880;8.650;2024-01-07T01:17:02;15.67;;;14.43;;
63346;SDS011;49472;49.880;8.650;2024-01-07T01:19:27;15.70;;;14.50;;
63346;SDS011;49472;49.880;8.650;2024-01-07T01:21:53;15.60;;;14.33;;
63346;SDS011;49472;49.880;8.650;2024-01-07T01:24:18;16.40;;;15.00;;
63346;SDS011;49472;49.880;8.650;2024-01-07T01:26:43;15.60;;;14.30;;
63346;SDS011;49472;49.880;8.650;2024-01-07T01:29:09;15.90;;;14.57;;
63346;SDS011;49472;49.880;8.650;2024-01-07T01:31:34;16.87;;;15.30;;
63346;SDS011;49472;49.880;8.650;2024-01-07T01:34:00;16.93;;;15.43;;
63346;SDS011;49472;49.880;8.650;2024-01-07T01:36:25;15.57;;;14.37;;
63346;SDS011;49472;49.880;8.650;2024-01-07T01:38:51;15.97;;;14.63;;
63346;SDS011;49472;49.880;8.650;2024-01-07T01:41:16;15.90;;;14.70;;
63346;SDS011;49472;49.880;8.650;2024-01-07T01:43:42;16.00;;;14.90;;
63346;SDS011;49472;49.880;8.650;2024-01-07T01:46:07;16.10;;;14.90;;
63346;SDS011;49472;49.880;8.650;2024-01-07T01:48:32;16.07;;;14.60;;
63346;SDS011;49472;49.880;8.650;2024-01-07T01:50:58;15.87;;;14.67;;
63346;SDS011;49472;49.880;8.650;2024-01-07T01:53:24;16.50;;;15.20;;
63346;SDS011;49472;49.880;8.650;2024-01-07T01:55:50;15.50;;;14.30;;
63346;SDS011;49472;49.880;8.650;2024-01-07T01:58:15;16.37;;;15.07;;
63346;SDS011;49472;49.880;8.650;2024-01-07T02:00:42;16.10;;;14.80;;
63346;SDS011;49472;49.880;8.650;2024-01-07T02:03:08;16.60;;;15.30;;
63346;SDS011;49472;49.880;8.650;2024-01-07T02:05:33;17.10;;;15.70;;
63346;SDS011;49472;49.880;8.650;2024-01-07T02:07:59;16.20;;;14.90;;
63346;SDS011;49472;49.880;8.650;2024-01-07T02:10:24;15.47;;;14.27;;
63346;SDS011;49472;49.880;8.650;2024-01-07T02:12:49;15.93;;;14.63;;
63346;SDS011;49472;49.880;8.650;2024-01-07T02:15:15;15.83;;;14.53;;
63346;SDS011;49472;49.880;8.650;2024-01-07T02:17:40;16.20;;;14.90;;
63346;SDS011;49472;49.880;8.650;2024-01-07T02:20:06;15.80;;;14.47;;
63346;SDS011;49472;49.880;8.650;2024-01-07T02:22:31;16.03;;;14.73;;
63346;SDS011;49472;49.880;8.650;2024-01-07T02:24:56;16.90;;;14.87;;
63346;SDS011;49472;49.880;8.650;2024-01-07T02:27:21;17.17;;;14.77;;
63346;SDS011;49472;49.880;8.650;2024-01-07T02:29:46;16.13;;;14.93;;
63346;SDS011;49472;49.880;8.650;2024-01-07T02:32:12;15.80;;;14.60;;
63346;SDS011;49472;49.880;8.650;2024-01-07T02:34:37;14.83;;;13.70;;
63346;SDS011;49472;49.880;8.650;2024-01-07T02:37:02;15.60;;;14.40;;
63346;SDS011;49472;49.880;8.650;2024-01-07T02:39:27;15.93;;;14.63;;
63346;SDS011;49472;49.880;8.650;2024-01-07T02:41:52;15.90;;;14.70;;
63346;SDS011;49472;49.880;8.650;2024-01-07T02:44:18;16.03;;;14.73;;
63346;SDS011;49472;49.880;8.650;2024-01-07T02:46:43;15.70;;;14.50;;
63346;SDS011;49472;49.880;8.650;2024-01-07T02:49:08;15.77;;;14.23;;
63346;SDS011;49472;49.880;8.650;2024-01-07T02:51:33;15.83;;;14.63;;
63346;SDS011;49472;49.880;8.650;2024-01-07T02:53:59;16.50;;;15.17;;
63346;SDS011;49472;49.880;8.650;2024-01-07T02:56:24;14.83;;;13.73;;
63346;SDS011;49472;49.880;8.650;2024-01-07T02:58:49;15.50;;;14.40;;
63346;SDS011;49472;49.880;8.650;2024-01-07T03:01:14;15.13;;;14.00;;
63346;SDS011;49472;49.880;8.650;2024-01-07T03:03:39;15.33;;;14.13;;
63346;SDS011;49472;49.880;8.650;2024-01-07T03:06:05;15.33;;;13.97;;
63346;SDS011;49472;49.880;8.650;2024-01-07T03:08:30;14.00;;;13.00;;
63346;SDS011;49472;49.880;8.650;2024-01-07T03:10:55;14.50;;;13.40;;
63346;SDS011;49472;49.880;8.650;2024-01-07T03:13:20;14.80;;;13.67;;
63346;SDS011;49472;49.880;8.650;2024-01-07T03:15:45;14.70;;;13.50;;
63346;SDS011;49472;49.880;8.650;2024-01-07T03:18:11;13.50;;;12.50;;
63346;SDS011;49472;49.880;8.650;2024-01-07T03:20:36;14.33;;;13.23;;
63346;SDS011;49472;49.880;8.650;2024-01-07T03:23:01;15.97;;;14.67;;
63346;SDS011;49472;49.880;8.650;2024-01-07T03:25:26;14.20;;;13.20;;
63346;SDS011;49472;49.880;8.650;2024-01-07T03:27:52;14.30;;;13.10;;
63346;SDS011;49472;49.880;8.650;2024-01-07T03:30:17;14.73;;;13.53;;
63346;SDS011;49472;49.880;8.650;2024-01-07T03:32:42;14.27;;;13.17;;
63346;SDS011;49472;49.880;8.650;2024-01-07T03:35:07;14.73;;;13.63;;
63346;SDS011;49472;49.880;8.650;2024-01-07T03:37:33;14.57;;;13.47;;
63346;SDS011;49472;49.880;8.650;2024-01-07T03:39:59;14.70;;;13.67;;
63346;SDS011;49472;49.880;8.650;2024-01-07T03:42:24;14.23;;;13.20;;
63346;SDS011;49472;49.880;8.650;2024-01-07T03:44:49;14.80;;;13.60;;
63346;SDS011;49472;49.880;8.650;2024-01-07T03:47:14;14.30;;;13.13;;
63346;SDS011;49472;49.880;8.650;2024-01-07T03:49:39;14.30;;;13.30;;
63346;SDS011;49472;49.880;8.650;2024-01-07T03:52:05;14.67;;;13.57;;
63346;SDS011;49472;49.880;8.650;2024-01-07T03:54:31;15.07;;;14.07;;
63346;SDS011;49472;49.880;8.650;2024-01-07T03:56:56;16.17;;;14.87;;
63346;SDS011;49472;49.880;8.650;2024-01-07T03:59:21;14.97;;;13.77;;
63346;SDS011;49472;49.880;8.650;2024-01-07T04:01:48;14.90;;;13.70;;
63346;SDS011;49472;49.880;8.650;2024-01-07T04:04:13;15.70;;;14.20;;
63346;SDS011;49472;49.880;8.650;2024-01-07T04:06:38;14.87;;;13.67;;
63346;SDS011;49472;49.880;8.650;2024-01-07T04:09:03;15.60;;;14.20;;
63346;SDS011;49472;49.880;8.650;2024-01-07T04:11:29;15.13;;;13.93;;
63346;SDS011;49472;49.880;8.650;2024-01-07T04:13:54;15.00;;;13.73;;
63346;SDS011;49472;49.880;8.650;2024-01-07T04:16:19;15.13;;;14.03;;
63346;SDS011;49472;49.880;8.650;2024-01-07T04:18:45;15.37;;;14.07;;
63346;SDS011;49472;49.880;8.650;2024-01-07T04:21:11;15.73;;;14.00;;
63346;SDS011;49472;49.880;8.650;2024-01-07T04:23:38;14.90;;;13.80;;
63346;SDS011;49472;49.880;8.650;2024-01-07T04:26:04;14.80;;;13.70;;
63346;SDS011;49472;49.880;8.650;2024-01-07T04:28:29;16.50;;;15.10;;
63346;SDS011;49472;49.880;8.650;2024-01-07T04:30:55;15.60;;;14.30;;
63346;SDS011;49472;49.880;8.650;2024-01-07T04:33:22;16.50;;;15.00;;
63346;SDS011;49472;49.880;8.650;2024-01-07T04:35:48;16.20;;;14.80;;
63346;SDS011;49472;49.880;8.650;2024-01-07T04:38:13;15.93;;;14.63;;
63346;SDS011;49472;49.880;8.650;2024-01-07T04:40:39;16.43;;;14.73;;
63346;SDS011;49472;49.880;8.650;2024-01-07T04:43:04;15.13;;;13.93;;
63346;SDS011;49472;49.880;8.650;2024-01-07T04:45:30;16.30;;;14.70;;
63346;SDS011;49472;49.880;8.650;2024-01-07T04:47:55;17.30;;;15.80;;
63346;SDS011;49472;49.880;8.650;2024-01-07T04:50:20;18.27;;;16.60;;
63346;SDS011;49472;49.880;8.650;2024-01-07T04:52:45;17.17;;;15.57;;
63346;SDS011;49472;49.880;8.650;2024-01-07T04:55:11;18.23;;;16.33;;
63346;SDS011;49472;49.880;8.650;2024-01-07T04:57:36;17.83;;;16.00;;
63346;SDS011;49472;49.880;8.650;2024-01-07T05:00:01;17.00;;;15.40;;
63346;SDS011;49472;49.880;8.650;2024-01-07T05:02:27;17.40;;;15.87;;
63346;SDS011;49472;49.880;8.650;2024-01-07T05:04:52;17.37;;;15.77;;
63346;SDS011;49472;49.880;8.650;2024-01-07T05:07:18;16.93;;;15.43;;
63346;SDS011;49472;49.880;8.650;2024-01-07T05:09:44;18.07;;;16.37;;
63346;SDS011;49472;49.880;8.650;2024-01-07T05:12:09;18.07;;;16.20;;
63346;SDS011;49472;49.880;8.650;2024-01-07T05:14:34;17.30;;;15.80;;
63346;SDS011;49472;49.880;8.650;2024-01-07T05:16:59;27.23;;;17.27;;
63346;SDS011;49472;49.880;8.650;2024-01-07T05:19:25;19.80;;;17.13;;
63346;SDS011;49472;49.880;8.650;2024-01-07T05:21:50;17.83;;;16.30;;
63346;SDS011;49472;49.880;8.650;2024-01-07T05:24:15;16.80;;;15.17;;
63346;SDS011;49472;49.880;8.650;2024-01-07T05:26:44;18.70;;;16.70;;
63346;SDS011;49472;49.880;8.650;2024-01-07T05:29:09;17.30;;;15.70;;
63346;SDS011;49472;49.880;8.650;2024-01-07T05:31:34;18.80;;;16.90;;
63346;SDS011;49472;49.880;8.650;2024-01-07T05:33:59;18.97;;;17.23;;
63346;SDS011;49472;49.880;8.650;2024-01-07T05:36:25;18.97;;;17.17;;
63346;SDS011;49472;49.880;8.650;2024-01-07T05:38:50;19.13;;;17.37;;
63346;SDS011;49472;49.880;8.650;2024-01-07T05:41:15;19.80;;;17.90;;
63346;SDS011;49472;49.880;8.650;2024-01-07T05:43:40;20.13;;;18.10;;
63346;SDS011;49472;49.880;8.650;2024-01-07T05:46:06;19.73;;;17.70;;
63346;SDS011;49472;49.880;8.650;2024-01-07T05:48:40;20.83;;;18.73;;
63346;SDS011;49472;49.880;8.650;2024-01-07T05:51:05;20.07;;;18.00;;
63346;SDS011;49472;49.880;8.650;2024-01-07T05:53:31;21.37;;;19.13;;
63346;SDS011;49472;49.880;8.650;2024-01-07T05:55:56;24.30;;;19.33;;
63346;SDS011;49472;49.880;8.650;2024-01-07T05:58:21;21.17;;;19.07;;
63346;SDS011;49472;49.880;8.650;2024-01-07T06:00:46;20.97;;;19.07;;
63346;SDS011;49472;49.880;8.650;2024-01-07T06:03:11;21.47;;;19.37;;
63346;SDS011;49472;49.880;8.650;2024-01-07T06:05:37;22.67;;;20.37;;
63346;SDS011;49472;49.880;8.650;2024-01-07T06:08:03;22.30;;;20.00;;
63346;SDS011;49472;49.880;8.650;2024-01-07T06:10:28;23.10;;;20.60;;
63346;SDS011;49472;49.880;8.650;2024-01-07T06:12:53;22.27;;;20.07;;
63346;SDS011;49472;49.880;8.650;2024-01-07T06:15:19;23.67;;;21.27;;
63346;SDS011;49472;49.880;8.650;2024-01-07T06:17:44;23.07;;;20.87;;
63346;SDS011;49472;49.880;8.650;2024-01-07T06:20:12;24.30;;;21.80;;
63346;SDS011;49472;49.880;8.650;2024-01-07T06:22:37;23.83;;;21.13;;
63346;SDS011;49472;49.880;8.650;2024-01-07T06:25:03;26.10;;;23.30;;
63346;SDS011;49472;49.880;8.650;2024-01-07T06:27:29;29.50;;;23.80;;
63346;SDS011;49472;49.880;8.650;2024-01-07T06:29:54;24.40;;;21.80;;
63346;SDS011;49472;49.880;8.650;2024-01-07T06:32:19;23.53;;;21.23;;
63346;SDS011;49472;49.880;8.650;2024-01-07T06:34:45;22.60;;;20.40;;
63346;SDS011;49472;49.880;8.650;2024-01-07T06:37:10;24.77;;;20.40;;
63346;SDS011;49472;49.880;8.650;2024-01-07T06:39:35;22.33;;;20.13;;
63346;SDS011;49472;49.880;8.650;2024-01-07T06:42:00;26.13;;;21.20;;
63346;SDS011;49472;49.880;8.650;2024-01-07T06:44:25;22.37;;;20.20;;
63346;SDS011;49472;49.880;8.650;2024-01-07T06:46:51;22.70;;;20.50;;
63346;SDS011;49472;49.880;8.650;2024-01-07T06:49:16;21.67;;;19.50;;
63346;SDS011;49472;49.880;8.650;2024-01-07T06:51:41;23.23;;;20.83;;
63346;SDS011;49472;49.880;8.650;2024-01-07T06:54:06;21.93;;;19.83;;
63346;SDS011;49472;49.880;8.650;2024-01-07T06:56:32;21.87;;;19.83;;
63346;SDS011;49472;49.880;8.650;2024-01-07T06:58:57;23.17;;;20.90;;
63346;SDS011;49472;49.880;8.650;2024-01-07T07:01:22;21.70;;;19.77;;
63346;SDS011;49472;49.880;8.650;2024-01-07T07:03:48;22.90;;;20.57;;
63346;SDS011;49472;49.880;8.650;2024-01-07T07:06:14;22.10;;;19.93;;
63346;SDS011;49472;49.880;8.650;2024-01-07T07:08:39;20.30;;;18.47;;
63346;SDS011;49472;49.880;8.650;2024-01-07T07:11:04;21.40;;;19.13;;
63346;SDS011;49472;49.880;8.650;2024-01-07T07:13:29;22.00;;;20.00;;
63346;SDS011;49472;49.880;8.650;2024-01-07T07:15:55;20.87;;;19.00;;
63346;SDS011;49472;49.880;8.650;2024-01-07T07:18:20;21.40;;;19.23;;
63346;SDS011;49472;49.880;8.650;2024-01-07T07:20:45;20.17;;;18.10;;
63346;SDS011;49472;49.880;8.650;2024-01-07T07:23:10;21.40;;;19.33;;
63346;SDS011;49472;49.880;8.650;2024-01-07T07:25:35;20.03;;;18.23;;
63346;SDS011;49472;49.880;8.650;2024-01-07T07:28:01;20.80;;;19.00;;
63346;SDS011;49472;49.880;8.650;2024-01-07T07:30:26;20.67;;;18.77;;
63346;SDS011;49472;49.880;8.650;2024-01-07T07:32:52;23.07;;;20.20;;
63346;SDS011;49472;49.880;8.650;2024-01-07T07:35:18;19.77;;;17.97;;
63346;SDS011;49472;49.880;8.650;2024-01-07T07:37:43;21.30;;;19.13;;
63346;SDS011;49472;49.880;8.650;2024-01-07T07:40:10;20.67;;;18.60;;
63346;SDS011;49472;49.880;8.650;2024-01-07T07:42:38;21.10;;;19.00;;
63346;SDS011;49472;49.880;8.650;2024-01-07T07:45:04;21.77;;;19.77;;
63346;SDS011;49472;49.880;8.650;2024-01-07T07:47:29;20.80;;;18.80;;
63346;SDS011;49472;49.880;8.650;2024-01-07T07:49:54;21.87;;;19.77;;
63346;SDS011;49472;49.880;8.650;2024-01-07T07:52:20;21.93;;;19.83;;
63346;SDS011;49472;49.880;8.650;2024-01-07T07:54:50;21.53;;;19.47;;
63346;SDS011;49472;49.880;8.650;2024-01-07T07:57:15;20.77;;;18.67;;
63346;SDS011;49472;49.880;8.650;2024-01-07T07:59:40;20.23;;;18.30;;
63346;SDS011;49472;49.880;8.650;2024-01-07T08:02:05;20.83;;;18.73;;
63346;SDS011;49472;49.880;8.650;2024-01-07T08:04:31;20.10;;;18.13;;
63346;SDS011;49472;49.880;8.650;2024-01-07T08:06:56;21.37;;;19.20;;
63346;SDS011;49472;49.880;8.650;2024-01-07T08:09:21;21.90;;;19.80;;
63346;SDS011;49472;49.880;8.650;2024-01-07T08:11:46;21.83;;;19.80;;
63346;SDS011;49472;49.880;8.650;2024-01-07T08:14:12;20.73;;;18.70;;
63346;SDS011;49472;49.880;8.650;2024-01-07T08:16:37;20.67;;;18.80;;
63346;SDS011;49472;49.880;8.650;2024-01-07T08:19:02;22.43;;;20.13;;
63346;SDS011;49472;49.880;8.650;2024-01-07T08:21:28;21.80;;;19.70;;
63346;SDS011;49472;49.880;8.650;2024-01-07T08:23:53;24.00;;;21.57;;
63346;SDS011;49472;49.880;8.650;2024-01-07T08:26:18;21.53;;;19.43;;
63346;SDS011;49472;49.880;8.650;2024-01-07T08:28:44;22.13;;;19.93;;
63346;SDS011;49472;49.880;8.650;2024-01-07T08:31:09;22.20;;;20.10;;
63346;SDS011;49472;49.880;8.650;2024-01-07T08:33:35;21.73;;;19.73;;
63346;SDS011;49472;49.880;8.650;2024-01-07T08:36:00;22.47;;;20.33;;
63346;SDS011;49472;49.880;8.650;2024-01-07T08:38:25;22.10;;;20.03;;
63346;SDS011;49472;49.880;8.650;2024-01-07T08:40:51;21.53;;;19.60;;
63346;SDS011;49472;49.880;8.650;2024-01-07T08:43:16;22.23;;;20.23;;
63346;SDS011;49472;49.880;8.650;2024-01-07T08:45:41;22.23;;;20.07;;
63346;SDS011;49472;49.880;8.650;2024-01-07T08:48:06;21.80;;;19.63;;
63346;SDS011;49472;49.880;8.650;2024-01-07T08:50:32;23.07;;;20.97;;
63346;SDS011;49472;49.880;8.650;2024-01-07T08:52:57;21.97;;;20.07;;
63346;SDS011;49472;49.880;8.650;2024-01-07T08:55:22;20.87;;;18.83;;
63346;SDS011;49472;49.880;8.650;2024-01-07T08:57:47;20.73;;;18.90;;
63346;SDS011;49472;49.880;8.650;2024-01-07T09:00:14;20.23;;;18.40;;
63346;SDS011;49472;49.880;8.650;2024-01-07T09:02:39;19.83;;;18.10;;
63346;SDS011;49472;49.880;8.650;2024-01-07T09:05:06;21.27;;;19.27;;
63346;SDS011;49472;49.880;8.650;2024-01-07T09:07:31;20.73;;;19.03;;
63346;SDS011;49472;49.880;8.650;2024-01-07T09:09:57;20.20;;;18.20;;
63346;SDS011;49472;49.880;8.650;2024-01-07T09:12:25;20.70;;;19.00;;
63346;SDS011;49472;49.880;8.650;2024-01-07T09:14:50;19.87;;;18.17;;
63346;SDS011;49472;49.880;8.650;2024-01-07T09:17:15;20.60;;;18.80;;
63346;SDS011;49472;49.880;8.650;2024-01-07T09:19:42;20.07;;;18.43;;
63346;SDS011;49472;49.880;8.650;2024-01-07T09:22:07;19.80;;;18.10;;
63346;SDS011;49472;49.880;8.650;2024-01-07T09:24:32;19.73;;;18.03;;
63346;SDS011;49472;49.880;8.650;2024-01-07T09:26:57;19.83;;;18.03;;
63346;SDS011;49472;49.880;8.650;2024-01-07T09:29:23;18.17;;;16.70;;
63346;SDS011;49472;49.880;8.650;2024-01-07T09:31:48;20.17;;;18.43;;
63346;SDS011;49472;49.880;8.650;2024-01-07T09:34:13;21.13;;;19.10;;
63346;SDS011;49472;49.880;8.650;2024-01-07T09:36:39;19.97;;;18.37;;
63346;SDS011;49472;49.880;8.650;2024-01-07T09:39:07;19.00;;;17.43;;
63346;SDS011;49472;49.880;8.650;2024-01-07T09:41:32;18.83;;;17.40;;
63346;SDS011;49472;49.880;8.650;2024-01-07T09:43:59;19.20;;;17.70;;
63346;SDS011;49472;49.880;8.650;2024-01-07T09:46:24;18.80;;;17.40;;
63346;SDS011;49472;49.880;8.650;2024-01-07T09:48:49;21.13;;;19.10;;
63346;SDS011;49472;49.880;8.650;2024-01-07T09:51:14;19.10;;;17.70;;
63346;SDS011;49472;49.880;8.650;2024-01-07T09:53:40;18.87;;;17.37;;
63346;SDS011;49472;49.880;8.650;2024-01-07T09:56:23;20.10;;;18.50;;
63346;SDS011;49472;49.880;8.650;2024-01-07T09:58:49;20.93;;;19.23;;
63346;SDS011;49472;49.880;8.650;2024-01-07T10:01:17;19.23;;;17.77;;
63346;SDS011;49472;49.880;8.650;2024-01-07T10:03:43;20.30;;;18.73;;
63346;SDS011;49472;49.880;8.650;2024-01-07T10:06:08;20.73;;;19.03;;
63346;SDS011;49472;49.880;8.650;2024-01-07T10:08:35;19.63;;;18.13;;
63346;SDS011;49472;49.880;8.650;2024-01-07T10:11:00;18.70;;;17.40;;
63346;SDS011;49472;49.880;8.650;2024-01-07T10:13:27;19.80;;;18.10;;
63346;SDS011;49472;49.880;8.650;2024-01-07T10:15:52;20.20;;;18.50;;
63346;SDS011;49472;49.880;8.650;2024-01-07T10:18:18;20.80;;;19.10;;
63346;SDS011;49472;49.880;8.650;2024-01-07T10:20:43;20.10;;;18.60;;
63346;SDS011;49472;49.880;8.650;2024-01-07T10:23:08;21.10;;;19.20;;
63346;SDS011;49472;49.880;8.650;2024-01-07T10:25:34;20.37;;;18.77;;
63346;SDS011;49472;49.880;8.650;2024-01-07T10:28:00;22.00;;;20.07;;
63346;SDS011;49472;49.880;8.650;2024-01-07T10:30:26;20.53;;;18.93;;
63346;SDS011;49472;49.880;8.650;2024-01-07T10:32:54;19.10;;;17.70;;
63346;SDS011;49472;49.880;8.650;2024-01-07T10:35:20;20.00;;;18.53;;
63346;SDS011;49472;49.880;8.650;2024-01-07T10:37:47;22.30;;;20.30;;
63346;SDS011;49472;49.880;8.650;2024-01-07T10:40:12;20.63;;;18.87;;
63346;SDS011;49472;49.880;8.650;2024-01-07T10:42:38;21.03;;;19.20;;
63346;SDS011;49472;49.880;8.650;2024-01-07T10:45:03;21.47;;;19.43;;
63346;SDS011;49472;49.880;8.650;2024-01-07T10:47:31;21.10;;;19.30;;
63346;SDS011;49472;49.880;8.650;2024-01-07T10:50:00;22.00;;;20.20;;
63346;SDS011;49472;49.880;8.650;2024-01-07T10:52:27;21.20;;;19.50;;
63346;SDS011;49472;49.880;8.650;2024-01-07T10:54:52;20.10;;;18.50;;
63346;SDS011;49472;49.880;8.650;2024-01-07T10:59:44;21.17;;;19.43;;
63346;SDS011;49472;49.880;8.650;2024-01-07T11:02:09;22.03;;;20.13;;
63346;SDS011;49472;49.880;8.650;2024-01-07T11:04:51;21.30;;;19.00;;
63346;SDS011;49472;49.880;8.650;2024-01-07T11:07:35;22.57;;;20.47;;
63346;SDS011;49472;49.880;8.650;2024-01-07T11:10:07;21.37;;;19.60;;
63346;SDS011;49472;49.880;8.650;2024-01-07T11:12:34;20.43;;;18.97;;
63346;SDS011;49472;49.880;8.650;2024-01-07T11:14:59;21.30;;;19.50;;
63346;SDS011;49472;49.880;8.650;2024-01-07T11:20:02;21.97;;;19.97;;
63346;SDS011;49472;49.880;8.650;2024-01-07T11:22:29;21.13;;;19.27;;
63346;SDS011;49472;49.880;8.650;2024-01-07T11:24:55;21.53;;;19.63;;
63346;SDS011;49472;49.880;8.650;2024-01-07T11:27:21;21.67;;;19.80;;
63346;SDS011;49472;49.880;8.650;2024-01-07T11:29:56;21.17;;;19.37;;
63346;SDS011;49472;49.880;8.650;2024-01-07T11:32:24;22.40;;;19.97;;
63346;SDS011;49472;49.880;8.650;2024-01-07T11:34:53;23.20;;;21.00;;
63346;SDS011;49472;49.880;8.650;2024-01-07T11:37:19;21.47;;;19.60;;
63346;SDS011;49472;49.880;8.650;2024-01-07T11:39:45;21.90;;;20.00;;
63346;SDS011;49472;49.880;8.650;2024-01-07T11:42:11;20.77;;;18.43;;
63346;SDS011;49472;49.880;8.650;2024-01-07T11:44:37;20.03;;;18.60;;
63346;SDS011;49472;49.880;8.650;2024-01-07T11:47:03;20.90;;;19.10;;
63346;SDS011;49472;49.880;8.650;2024-01-07T11:49:30;21.43;;;19.63;;
63346;SDS011;49472;49.880;8.650;2024-01-07T11:51:55;21.30;;;19.60;;
63346;SDS011;49472;49.880;8.650;2024-01-07T11:54:20;20.47;;;18.77;;
63346;SDS011;49472;49.880;8.650;2024-01-07T11:56:46;21.83;;;19.97;;
63346;SDS011;49472;49.880;8.650;2024-01-07T11:59:11;21.93;;;19.83;;
63346;SDS011;49472;49.880;8.650;2024-01-07T12:01:37;21.63;;;19.60;;
63346;SDS011;49472;49.880;8.650;2024-01-07T12:04:02;21.63;;;19.80;;
63346;SDS011;49472;49.880;8.650;2024-01-07T12:06:27;22.00;;;19.87;;
63346;SDS011;49472;49.880;8.650;2024-01-07T12:08:52;21.40;;;19.40;;
63346;SDS011;49472;49.880;8.650;2024-01-07T12:11:19;19.13;;;17.60;;
63346;SDS011;49472;49.880;8.650;2024-01-07T12:13:45;20.47;;;18.93;;
63346;SDS011;49472;49.880;8.650;2024-01-07T12:16:11;21.93;;;20.17;;
63346;SDS011;49472;49.880;8.650;2024-01-07T12:18:36;20.10;;;18.50;;
63346;SDS011;49472;49.880;8.650;2024-01-07T12:21:02;21.40;;;19.60;;
63346;SDS011;49472;49.880;8.650;2024-01-07T12:23:28;22.27;;;20.10;;
63346;SDS011;49472;49.880;8.650;2024-01-07T12:25:53;22.40;;;20.30;;
63346;SDS011;49472;49.880;8.650;2024-01-07T12:28:19;22.40;;;20.50;;
63346;SDS011;49472;49.880;8.650;2024-01-07T12:30:45;21.00;;;19.17;;
63346;SDS011;49472;49.880;8.650;2024-01-07T12:33:10;22.33;;;20.30;;
63346;SDS011;49472;49.880;8.650;2024-01-07T12:35:35;21.37;;;19.57;;
63346;SDS011;49472;49.880;8.650;2024-01-07T12:38:01;21.93;;;19.93;;
63346;SDS011;49472;49.880;8.650;2024-01-07T12:40:27;22.10;;;20.20;;
63346;SDS011;49472;49.880;8.650;2024-01-07T12:42:52;21.40;;;19.60;;
63346;SDS011;49472;49.880;8.650;2024-01-07T12:45:17;21.00;;;19.10;;
63346;SDS011;49472;49.880;8.650;2024-01-07T12:47:43;20.90;;;19.20;;
63346;SDS011;49472;49.880;8.650;2024-01-07T12:50:09;21.40;;;19.70;;
63346;SDS011;49472;49.880;8.650;2024-01-07T12:52:35;22.53;;;20.63;;
63346;SDS011;49472;49.880;8.650;2024-01-07T12:55:01;20.87;;;19.07;;
63346;SDS011;49472;49.880;8.650;2024-01-07T12:57:26;20.50;;;18.80;;
63346;SDS011;49472;49.880;8.650;2024-01-07T12:59:52;23.00;;;20.67;;
63346;SDS011;49472;49.880;8.650;2024-01-07T13:02:17;21.90;;;19.90;;
63346;SDS011;49472;49.880;8.650;2024-01-07T13:04:44;20.70;;;18.80;;
63346;SDS011;49472;49.880;8.650;2024-01-07T13:07:09;19.80;;;18.30;;
63346;SDS011;49472;49.880;8.650;2024-01-07T13:09:34;19.83;;;18.03;;
63346;SDS011;49472;49.880;8.650;2024-01-07T13:11:59;20.77;;;19.07;;
63346;SDS011;49472;49.880;8.650;2024-01-07T13:14:25;22.53;;;20.03;;
63346;SDS011;49472;49.880;8.650;2024-01-07T13:16:50;20.93;;;19.13;;
63346;SDS011;49472;49.880;8.650;2024-01-07T13:19:15;19.70;;;18.10;;
63346;SDS011;49472;49.880;8.650;2024-01-07T13:21:41;20.97;;;19.07;;
63346;SDS011;49472;49.880;8.650;2024-01-07T13:24:07;21.23;;;19.23;;
63346;SDS011;49472;49.880;8.650;2024-01-07T13:26:32;20.93;;;19.20;;
63346;SDS011;49472;49.880;8.650;2024-01-07T13:28:57;20.80;;;18.80;;
63346;SDS011;49472;49.880;8.650;2024-01-07T13:31:23;21.77;;;19.77;;
63346;SDS011;49472;49.880;8.650;2024-01-07T13:33:48;21.13;;;19.33;;
63346;SDS011;49472;49.880;8.650;2024-01-07T13:36:13;21.07;;;19.30;;
63346;SDS011;49472;49.880;8.650;2024-01-07T13:38:39;21.30;;;19.47;;
63346;SDS011;49472;49.880;8.650;2024-01-07T13:41:06;20.63;;;18.80;;
63346;SDS011;49472;49.880;8.650;2024-01-07T13:43:31;22.67;;;20.77;;
63346;SDS011;49472;49.880;8.650;2024-01-07T13:45:56;20.90;;;19.10;;
63346;SDS011;49472;49.880;8.650;2024-01-07T13:48:22;20.80;;;19.10;;
63346;SDS011;49472;49.880;8.650;2024-01-07T13:50:47;20.30;;;18.70;;
63346;SDS011;49472;49.880;8.650;2024-01-07T13:53:14;23.03;;;20.73;;
63346;SDS011;49472;49.880;8.650;2024-01-07T13:55:39;22.10;;;19.90;;
63346;SDS011;49472;49.880;8.650;2024-01-07T13:58:04;19.70;;;18.00;;
63346;SDS011;49472;49.880;8.650;2024-01-07T14:00:30;19.40;;;17.80;;
63346;SDS011;49472;49.880;8.650;2024-01-07T14:02:55;20.37;;;18.67;;
63346;SDS011;49472;49.880;8.650;2024-01-07T14:05:21;18.47;;;16.97;;
63346;SDS011;49472;49.880;8.650;2024-01-07T14:07:46;19.90;;;18.30;;
63346;SDS011;49472;49.880;8.650;2024-01-07T14:10:11;19.90;;;18.10;;
63346;SDS011;49472;49.880;8.650;2024-01-07T14:12:36;19.07;;;17.57;;
63346;SDS011;49472;49.880;8.650;2024-01-07T14:15:02;19.27;;;17.80;;
63346;SDS011;49472;49.880;8.650;2024-01-07T14:17:28;20.10;;;18.40;;